createdAt,value
2024-02-02T00:00:18.932Z,19.60
2024-02-02T00:02:45.812Z,18.08
2024-02-02T00:05:12.774Z,22.67
2024-02-02T00:07:39.512Z,15.88
2024-02-02T00:10:06.573Z,17.38
2024-02-02T00:12:33.355Z,15.10
2024-02-02T00:15:00.124Z,18.88
2024-02-02T00:17:26.902Z,18.52
2024-02-02T00:19:53.684Z,12.27
2024-02-02T00:22:22.107Z,16.30
2024-02-02T00:24:48.990Z,15.43
2024-02-02T00:27:16.250Z,17.50
2024-02-02T00:29:46.781Z,21.10
2024-02-02T00:32:14.766Z,24.83
2024-02-02T00:34:42.920Z,18.52
2024-02-02T00:37:10.015Z,22.08
2024-02-02T00:39:39.464Z,15.20
2024-02-02T00:42:06.364Z,19.15
2024-02-02T00:44:33.127Z,20.00
2024-02-02T00:46:59.843Z,15.55
2024-02-02T00:49:26.776Z,16.60
2024-02-02T00:51:53.675Z,17.52
2024-02-02T00:54:20.526Z,14.65
2024-02-02T00:56:47.448Z,16.80
2024-02-02T00:59:14.369Z,14.95
2024-02-02T01:01:41.276Z,18.77
2024-02-02T01:04:08.134Z,17.80
2024-02-02T01:06:35.765Z,15.50
2024-02-02T01:09:02.868Z,14.30
2024-02-02T01:11:30.100Z,19.73
2024-02-02T01:13:56.831Z,14.82
2024-02-02T01:16:23.659Z,16.45
2024-02-02T01:18:50.518Z,16.92
2024-02-02T01:21:17.409Z,15.30
2024-02-02T01:23:44.169Z,18.33
2024-02-02T01:26:10.893Z,19.27
2024-02-02T01:28:37.710Z,17.73
2024-02-02T01:31:04.555Z,12.07
2024-02-02T01:33:31.520Z,15.18
2024-02-02T01:35:59.209Z,17.73
2024-02-02T01:38:25.896Z,14.15
2024-02-02T01:40:52.681Z,15.07
2024-02-02T01:43:19.497Z,12.32
2024-02-02T01:45:46.287Z,15.50
2024-02-02T01:48:13.162Z,17.63
2024-02-02T01:50:39.984Z,9.60
2024-02-02T01:53:06.837Z,18.38
2024-02-02T01:55:33.750Z,16.10
2024-02-02T01:58:00.837Z,13.82
2024-02-02T02:00:27.815Z,13.63
2024-02-02T02:02:54.697Z,15.68
2024-02-02T02:05:21.566Z,11.65
2024-02-02T02:07:48.449Z,16.15
2024-02-02T02:10:15.348Z,13.15
2024-02-02T02:12:42.174Z,11.85
2024-02-02T02:15:11.213Z,13.00
2024-02-02T02:17:39.645Z,12.07
2024-02-02T02:20:12.323Z,17.48
2024-02-02T02:22:39.171Z,9.18
2024-02-02T02:25:06.447Z,21.08
2024-02-02T02:27:33.837Z,17.00
2024-02-02T02:30:02.056Z,12.45
2024-02-02T02:32:29.288Z,13.93
2024-02-02T02:34:56.423Z,13.40
2024-02-02T02:37:23.392Z,12.20
2024-02-02T02:39:50.705Z,14.75
2024-02-02T02:42:17.679Z,15.00
2024-02-02T02:44:44.548Z,13.23
2024-02-02T02:47:12.244Z,15.18
2024-02-02T02:49:39.171Z,12.60
2024-02-02T02:52:06.502Z,20.40
2024-02-02T02:54:33.742Z,12.57
2024-02-02T02:57:01.783Z,14.48
2024-02-02T02:59:29.782Z,19.13
2024-02-02T03:01:57.129Z,11.70
2024-02-02T03:04:24.169Z,12.15
2024-02-02T03:06:51.044Z,14.57
2024-02-02T03:09:17.987Z,14.40
2024-02-02T03:11:44.730Z,16.05
2024-02-02T03:14:11.521Z,15.68
2024-02-02T03:16:38.498Z,15.90
2024-02-02T03:19:06.076Z,14.52
2024-02-02T03:21:35.209Z,12.50
2024-02-02T03:24:02.350Z,17.13
2024-02-02T03:26:29.313Z,17.30
2024-02-02T03:28:56.034Z,14.40
2024-02-02T03:31:22.991Z,15.05
2024-02-02T03:33:49.908Z,12.93
2024-02-02T03:36:17.025Z,14.38
2024-02-02T03:38:43.806Z,13.75
2024-02-02T03:41:10.528Z,12.70
2024-02-02T03:43:37.330Z,13.00
2024-02-02T03:46:04.189Z,15.80
2024-02-02T03:48:30.993Z,23.20
2024-02-02T03:50:57.781Z,15.48
2024-02-02T03:53:24.534Z,15.63
2024-02-02T03:55:52.297Z,15.57
2024-02-02T03:58:19.074Z,14.75
2024-02-02T04:00:46.514Z,13.98
2024-02-02T04:03:13.457Z,12.70
2024-02-02T04:05:40.909Z,14.52
2024-02-02T04:08:08.065Z,21.63
2024-02-02T04:10:34.841Z,17.65
2024-02-02T04:13:03.196Z,20.05
2024-02-02T04:15:33.130Z,19.35
2024-02-02T04:18:00.670Z,13.85
2024-02-02T04:20:27.656Z,11.32
2024-02-02T04:22:54.485Z,18.88
2024-02-02T04:25:21.210Z,15.00
2024-02-02T04:27:48.072Z,11.40
2024-02-02T04:30:15.171Z,16.00
2024-02-02T04:32:42.410Z,17.58
2024-02-02T04:35:09.272Z,13.15
2024-02-02T04:37:36.054Z,20.30
2024-02-02T04:40:02.864Z,16.67
2024-02-02T04:42:29.661Z,18.63
2024-02-02T04:44:56.417Z,20.13
2024-02-02T04:47:23.717Z,14.10
2024-02-02T04:49:50.594Z,20.85
2024-02-02T04:52:17.378Z,19.00
2024-02-02T04:54:44.170Z,20.10
2024-02-02T04:57:11.092Z,17.52
2024-02-02T04:59:38.532Z,13.10
2024-02-02T05:02:06.624Z,14.55
2024-02-02T05:04:34.092Z,10.93
2024-02-02T05:07:01.055Z,13.90
2024-02-02T05:09:28.469Z,20.00
2024-02-02T05:11:55.371Z,11.07
2024-02-02T05:14:22.166Z,12.38
2024-02-02T05:16:49.058Z,11.10
2024-02-02T05:19:15.878Z,12.95
2024-02-02T05:21:43.364Z,10.32
2024-02-02T05:24:25.180Z,11.00
2024-02-02T05:26:57.304Z,15.75
2024-02-02T05:29:24.281Z,9.23
2024-02-02T05:31:50.967Z,14.13
2024-02-02T05:34:17.728Z,10.07
2024-02-02T05:36:45.848Z,12.75
2024-02-02T05:39:12.973Z,15.00
2024-02-02T05:41:39.979Z,14.50
2024-02-02T05:44:06.726Z,12.20
2024-02-02T05:46:36.165Z,13.27
2024-02-02T05:49:04.594Z,11.00
2024-02-02T05:51:31.611Z,12.02
2024-02-02T05:53:58.424Z,8.63
2024-02-02T05:56:25.216Z,12.82
2024-02-02T05:58:51.925Z,13.05
2024-02-02T06:01:18.752Z,16.48
2024-02-02T06:03:45.684Z,7.65
2024-02-02T06:06:12.953Z,11.98
2024-02-02T06:08:39.727Z,8.75
2024-02-02T06:11:06.901Z,9.98
2024-02-02T06:13:34.310Z,10.10
2024-02-02T06:16:01.748Z,13.30
2024-02-02T06:18:28.746Z,5.57
2024-02-02T06:20:55.632Z,11.77
2024-02-02T06:23:22.443Z,13.15
2024-02-02T06:25:49.182Z,11.07
2024-02-02T06:28:15.967Z,8.57
2024-02-02T06:30:43.373Z,15.55
2024-02-02T06:33:12.409Z,9.48
2024-02-02T06:35:39.264Z,12.50
2024-02-02T06:38:06.030Z,10.73
2024-02-02T06:40:32.840Z,11.65
2024-02-02T06:42:59.683Z,8.07
2024-02-02T06:45:28.120Z,11.43
2024-02-02T06:47:55.022Z,12.05
2024-02-02T06:50:22.031Z,10.60
2024-02-02T06:52:48.821Z,10.95
2024-02-02T06:55:16.365Z,11.23
2024-02-02T06:57:43.976Z,12.38
2024-02-02T07:00:17.583Z,12.32
2024-02-02T07:02:44.889Z,13.00
2024-02-02T07:05:15.521Z,10.23
2024-02-02T07:07:42.764Z,8.25
2024-02-02T07:10:16.672Z,7.72
2024-02-02T07:12:59.517Z,10.82
2024-02-02T07:15:29.060Z,9.25
2024-02-02T07:17:56.104Z,8.30
2024-02-02T07:20:22.922Z,5.90
2024-02-02T07:22:55.444Z,6.85
2024-02-02T07:25:23.933Z,8.35
2024-02-02T07:27:58.832Z,10.38
2024-02-02T07:30:54.068Z,9.65
2024-02-02T07:33:39.532Z,9.48
2024-02-02T07:36:11.005Z,10.35
2024-02-02T07:38:54.031Z,7.25
2024-02-02T07:41:25.589Z,8.00
2024-02-02T07:43:57.257Z,8.13
2024-02-02T07:46:24.182Z,9.45
2024-02-02T07:48:53.046Z,7.85
2024-02-02T07:51:20.508Z,11.80
2024-02-02T07:53:47.604Z,9.60
2024-02-02T07:56:15.193Z,13.40
2024-02-02T07:58:42.007Z,9.48
2024-02-02T08:01:11.971Z,8.07
2024-02-02T08:03:38.991Z,6.45
2024-02-02T08:06:07.272Z,6.43
2024-02-02T08:08:34.637Z,8.15
2024-02-02T08:11:01.427Z,8.60
2024-02-02T08:13:28.630Z,6.82
2024-02-02T08:15:56.197Z,9.75
2024-02-02T08:18:23.327Z,6.72
2024-02-02T08:20:50.200Z,12.27
2024-02-02T08:23:17.019Z,12.00
2024-02-02T08:25:43.757Z,9.02
2024-02-02T08:28:10.560Z,9.25
2024-02-02T08:30:37.643Z,10.70
2024-02-02T08:33:05.098Z,8.25
2024-02-02T08:35:32.303Z,8.05
2024-02-02T08:38:01.070Z,8.73
2024-02-02T08:40:39.955Z,11.77
2024-02-02T08:43:15.779Z,9.80
2024-02-02T08:46:04.641Z,15.35
2024-02-02T08:48:42.504Z,8.82
2024-02-02T08:51:24.989Z,7.68
2024-02-02T08:54:35.294Z,15.93
2024-02-02T08:57:31.174Z,11.35
2024-02-02T09:00:06.042Z,9.98
2024-02-02T09:02:52.988Z,15.45
2024-02-02T09:05:21.957Z,11.20
2024-02-02T09:07:51.920Z,9.40
2024-02-02T09:10:44.135Z,10.15
2024-02-02T09:13:24.302Z,12.88
2024-02-02T09:15:51.222Z,15.38
2024-02-02T09:18:37.176Z,11.60
2024-02-02T09:21:05.873Z,14.77
2024-02-02T09:23:37.144Z,15.85
2024-02-02T09:26:16.033Z,13.60
2024-02-02T09:28:44.064Z,16.95
2024-02-02T09:31:24.749Z,14.77
2024-02-02T09:33:52.562Z,14.65
2024-02-02T09:36:27.013Z,12.05
2024-02-02T09:39:02.560Z,10.82
2024-02-02T09:41:54.595Z,16.77
2024-02-02T09:44:33.082Z,11.82
2024-02-02T09:47:20.029Z,12.75
2024-02-02T09:50:24.588Z,12.15
2024-02-02T09:53:13.138Z,18.67
2024-02-02T09:55:48.607Z,13.50
2024-02-02T09:58:27.649Z,13.45
2024-02-02T10:01:09.812Z,16.60
2024-02-02T10:03:44.461Z,17.77
2024-02-02T10:06:48.455Z,16.17
2024-02-02T10:09:24.143Z,12.82
2024-02-02T10:12:05.996Z,13.57
2024-02-02T10:15:02.733Z,15.85
2024-02-02T10:17:41.649Z,14.57
2024-02-02T10:20:26.596Z,14.93
2024-02-02T10:23:03.438Z,19.90
2024-02-02T10:25:58.313Z,18.92
2024-02-02T10:28:31.003Z,22.27
2024-02-02T10:31:27.791Z,13.65
2024-02-02T10:34:12.868Z,22.98
2024-02-02T10:36:58.112Z,16.85
2024-02-02T10:39:47.202Z,16.48
2024-02-02T10:42:25.895Z,22.95
2024-02-02T10:45:12.361Z,19.70
2024-02-02T10:48:01.965Z,20.58
2024-02-02T10:50:57.822Z,19.55
2024-02-02T10:53:34.464Z,17.20
2024-02-02T10:56:36.995Z,15.05
2024-02-02T10:59:23.249Z,16.33
2024-02-02T11:02:08.937Z,11.55
2024-02-02T11:04:54.607Z,17.10
2024-02-02T11:07:29.723Z,15.70
2024-02-02T11:09:58.603Z,16.63
2024-02-02T11:12:52.459Z,17.88
2024-02-02T11:15:37.400Z,17.10
2024-02-02T11:18:44.028Z,13.25
2024-02-02T11:21:33.487Z,20.85
2024-02-02T11:24:20.323Z,15.40
2024-02-02T11:26:55.556Z,18.88
2024-02-02T11:29:43.285Z,20.17
2024-02-02T11:32:46.498Z,16.88
2024-02-02T11:38:35.866Z,14.70
2024-02-02T11:41:03.960Z,17.45
2024-02-02T11:43:32.023Z,16.60
2024-02-02T11:46:00.842Z,21.52
2024-02-02T11:48:36.393Z,19.00
2024-02-02T11:51:04.466Z,18.50
2024-02-02T11:53:53.303Z,14.70
2024-02-02T11:56:33.006Z,18.85
2024-02-02T11:59:33.903Z,19.52
2024-02-02T12:02:35.829Z,19.20
2024-02-02T12:05:09.164Z,22.65
2024-02-02T12:07:53.811Z,14.15
2024-02-02T12:10:23.491Z,21.65
2024-02-02T12:12:58.634Z,21.65
2024-02-02T12:15:27.158Z,25.10
2024-02-02T12:17:55.220Z,22.83
2024-02-02T12:20:22.986Z,21.02
2024-02-02T12:22:51.153Z,18.02
2024-02-02T12:25:20.078Z,19.85
2024-02-02T12:27:47.182Z,18.83
2024-02-02T12:30:15.355Z,18.90
2024-02-02T12:32:53.385Z,20.88
2024-02-02T12:35:25.373Z,21.15
2024-02-02T12:37:53.431Z,22.95
2024-02-02T12:40:20.796Z,22.70
2024-02-02T12:42:51.520Z,21.92
2024-02-02T12:45:19.340Z,20.92
2024-02-02T12:47:48.007Z,19.45
2024-02-02T12:50:22.421Z,20.20
2024-02-02T12:52:54.972Z,18.40
2024-02-02T12:55:21.843Z,14.75
2024-02-02T12:57:48.737Z,18.70
2024-02-02T13:00:16.024Z,16.27
2024-02-02T13:02:44.713Z,17.50
2024-02-02T13:05:17.903Z,14.52
2024-02-02T13:07:49.764Z,17.52
2024-02-02T13:10:34.882Z,18.92
2024-02-02T13:13:20.432Z,18.50
2024-02-02T13:15:47.534Z,12.50
2024-02-02T13:18:18.198Z,17.65
2024-02-02T13:20:47.245Z,17.60
2024-02-02T13:23:26.561Z,18.45
2024-02-02T13:26:00.383Z,22.33
2024-02-02T13:28:42.255Z,15.63
2024-02-02T13:31:18.024Z,17.25
2024-02-02T13:33:56.171Z,18.30
2024-02-02T13:36:30.801Z,18.27
2024-02-02T13:39:01.577Z,17.13
2024-02-02T13:41:31.821Z,17.10
2024-02-02T13:43:59.674Z,20.05
2024-02-02T13:46:27.320Z,17.92
2024-02-02T13:48:59.074Z,16.35
2024-02-02T13:51:27.724Z,20.83
2024-02-02T13:53:58.281Z,13.43
2024-02-02T13:56:27.855Z,15.68
2024-02-02T13:58:55.852Z,21.05
2024-02-02T14:01:24.231Z,19.60
2024-02-02T14:03:58.548Z,15.70
2024-02-02T14:06:26.080Z,21.17
2024-02-02T14:08:54.846Z,13.43
2024-02-02T14:11:25.570Z,19.35
2024-02-02T14:13:56.076Z,22.05
2024-02-02T14:16:24.489Z,14.00
2024-02-02T14:19:11.706Z,16.63
2024-02-02T14:21:39.281Z,14.38
2024-02-02T14:24:09.295Z,18.65
2024-02-02T14:26:52.952Z,22.15
2024-02-02T14:29:20.917Z,18.25
2024-02-02T14:31:48.804Z,19.70
2024-02-02T14:34:15.856Z,21.02
2024-02-02T14:36:43.186Z,21.63
2024-02-02T14:39:16.731Z,16.23
2024-02-02T14:41:43.482Z,18.70
2024-02-02T14:44:10.185Z,20.50
2024-02-02T14:46:40.766Z,21.13
2024-02-02T14:49:09.772Z,19.25
2024-02-02T14:51:37.616Z,19.20
2024-02-02T14:54:05.488Z,19.90
2024-02-02T14:56:32.998Z,20.27
2024-02-02T14:59:08.918Z,21.70
2024-02-02T15:01:40.164Z,20.85
2024-02-02T15:04:08.304Z,19.80
2024-02-02T15:06:37.180Z,21.25
2024-02-02T15:09:13.911Z,19.15
2024-02-02T15:11:45.171Z,26.40
2024-02-02T15:14:12.277Z,24.15
2024-02-02T15:16:39.061Z,22.50
2024-02-02T15:19:06.414Z,18.25
2024-02-02T15:21:33.823Z,19.98
2024-02-02T15:24:01.411Z,18.60
2024-02-02T15:26:28.347Z,20.25
2024-02-02T15:28:55.354Z,24.05
2024-02-02T15:31:22.811Z,17.33
2024-02-02T15:33:49.700Z,18.55
2024-02-02T15:36:16.669Z,20.85
2024-02-02T15:38:59.966Z,18.70
2024-02-02T15:41:30.322Z,20.50
2024-02-02T15:43:57.314Z,24.83
2024-02-02T15:46:24.969Z,22.75
2024-02-02T15:48:52.258Z,20.73
2024-02-02T15:51:19.552Z,18.50
2024-02-02T15:53:47.116Z,23.55
2024-02-02T15:56:26.437Z,22.63
2024-02-02T15:58:53.788Z,23.17
2024-02-02T16:01:20.668Z,22.55
2024-02-02T16:03:47.476Z,22.42
2024-02-02T16:06:20.551Z,27.17
2024-02-02T16:08:47.359Z,24.65
2024-02-02T16:11:15.582Z,21.92
2024-02-02T16:13:45.815Z,21.02
2024-02-02T16:16:12.895Z,26.55
2024-02-02T16:18:39.901Z,30.83
2024-02-02T16:21:06.779Z,33.60
2024-02-02T16:23:33.648Z,31.13
2024-02-02T16:26:00.545Z,30.17
2024-02-02T16:28:27.440Z,29.38
2024-02-02T16:30:54.333Z,29.88
2024-02-02T16:33:23.290Z,26.13
2024-02-02T16:35:50.226Z,28.77
2024-02-02T16:38:17.000Z,34.45
2024-02-02T16:40:43.936Z,24.75
2024-02-02T16:43:10.647Z,26.33
2024-02-02T16:45:37.616Z,33.08
2024-02-02T16:48:04.797Z,32.53
2024-02-02T16:50:31.589Z,35.22
2024-02-02T16:52:58.298Z,26.73
2024-02-02T16:55:25.089Z,39.28
2024-02-02T16:57:52.818Z,28.63
2024-02-02T17:00:20.265Z,30.40
2024-02-02T17:02:47.174Z,30.00
2024-02-02T17:05:13.927Z,28.77
2024-02-02T17:07:40.815Z,30.55
2024-02-02T17:10:07.890Z,36.67
2024-02-02T17:12:35.472Z,32.15
2024-02-02T17:15:04.209Z,30.33
2024-02-02T17:17:31.203Z,27.20
2024-02-02T17:19:58.237Z,36.00
2024-02-02T17:22:25.025Z,36.70
2024-02-02T17:24:51.841Z,36.72
2024-02-02T17:27:18.698Z,36.88
2024-02-02T17:29:45.451Z,34.58
2024-02-02T17:32:15.557Z,35.80
2024-02-02T17:37:13.307Z,39.80
2024-02-02T17:39:40.238Z,39.30
2024-02-02T17:42:07.180Z,34.30
2024-02-02T17:44:33.870Z,42.80
2024-02-02T17:47:00.585Z,39.67
2024-02-02T17:49:34.768Z,34.58
2024-02-02T17:52:08.328Z,35.25
2024-02-02T17:54:35.075Z,35.38
2024-02-02T17:57:03.203Z,41.05
2024-02-02T17:59:30.916Z,36.20
2024-02-02T18:01:57.691Z,38.75
2024-02-02T18:04:24.481Z,43.80
2024-02-02T18:06:51.275Z,38.03
2024-02-02T18:09:18.380Z,43.65
2024-02-02T18:11:45.153Z,31.08
2024-02-02T18:14:12.881Z,35.05
2024-02-02T18:16:39.600Z,37.58
2024-02-02T18:19:06.495Z,39.03
2024-02-02T18:21:33.353Z,33.05
2024-02-02T18:24:00.240Z,39.85
2024-02-02T18:26:26.989Z,33.28
2024-02-02T18:28:53.726Z,38.20
2024-02-02T18:31:20.418Z,40.03
2024-02-02T18:33:47.444Z,36.00
2024-02-02T18:36:14.232Z,36.47
2024-02-02T18:38:41.632Z,34.33
2024-02-02T18:41:09.416Z,34.13
2024-02-02T18:43:38.645Z,43.55
2024-02-02T18:46:05.642Z,39.28
2024-02-02T18:48:35.698Z,35.85
2024-02-02T18:51:04.402Z,39.22
2024-02-02T18:53:31.110Z,34.17
2024-02-02T18:55:57.781Z,33.53
2024-02-02T18:58:32.071Z,37.63
2024-02-02T19:01:06.484Z,35.17
2024-02-02T19:03:33.309Z,35.38
2024-02-02T19:06:01.337Z,33.75
2024-02-02T19:08:28.234Z,30.70
2024-02-02T19:10:55.010Z,35.55
2024-02-02T19:13:21.786Z,35.88
2024-02-02T19:15:48.829Z,37.90
2024-02-02T19:18:15.852Z,32.15
2024-02-02T19:20:42.741Z,33.08
2024-02-02T19:23:10.055Z,32.80
2024-02-02T19:25:36.781Z,37.92
2024-02-02T19:28:03.549Z,36.38
2024-02-02T19:30:30.290Z,36.55
2024-02-02T19:32:57.288Z,35.22
2024-02-02T19:35:24.887Z,32.78
2024-02-02T19:37:53.768Z,32.65
2024-02-02T19:40:20.466Z,37.08
2024-02-02T19:42:47.660Z,32.53
2024-02-02T19:45:14.583Z,40.83
2024-02-02T19:47:41.403Z,32.22
2024-02-02T19:50:08.858Z,35.80
2024-02-02T19:52:37.112Z,36.63
2024-02-02T19:55:06.401Z,30.58
2024-02-02T19:57:33.418Z,32.03
2024-02-02T20:00:00.320Z,36.47
2024-02-02T20:02:29.857Z,33.05
2024-02-02T20:04:56.922Z,35.63
2024-02-02T20:07:24.022Z,36.22
2024-02-02T20:09:51.124Z,34.28
2024-02-02T20:12:17.987Z,34.80
2024-02-02T20:14:44.706Z,33.92
2024-02-02T20:17:11.404Z,31.85
2024-02-02T20:19:41.875Z,37.13
2024-02-02T20:22:08.938Z,34.08
2024-02-02T20:24:40.788Z,34.53
2024-02-02T20:27:07.550Z,36.47
2024-02-02T20:29:34.267Z,32.47
2024-02-02T20:32:01.037Z,37.22
2024-02-02T20:34:31.559Z,33.28
2024-02-02T20:36:58.798Z,28.63
2024-02-02T20:39:25.613Z,30.55
2024-02-02T20:41:52.795Z,27.08
2024-02-02T20:44:19.712Z,27.90
2024-02-02T20:46:46.389Z,36.22
2024-02-02T20:49:15.535Z,30.95
2024-02-02T20:51:42.755Z,34.65
2024-02-02T20:54:09.771Z,33.65
2024-02-02T20:56:43.018Z,31.40
2024-02-02T20:59:09.750Z,30.80
2024-02-02T21:01:36.496Z,30.98
2024-02-02T21:04:03.486Z,29.58
2024-02-02T21:06:30.354Z,33.72
2024-02-02T21:08:57.142Z,33.55
2024-02-02T21:11:23.869Z,33.83
2024-02-02T21:13:50.653Z,31.33
2024-02-02T21:16:18.169Z,30.98
2024-02-02T21:18:45.115Z,27.17
2024-02-02T21:21:21.683Z,30.67
2024-02-02T21:23:50.108Z,31.70
2024-02-02T21:26:17.465Z,27.80
2024-02-02T21:28:44.272Z,31.20
2024-02-02T21:31:11.056Z,31.33
2024-02-02T21:33:37.889Z,32.50
2024-02-02T21:36:07.982Z,32.08
2024-02-02T21:38:35.225Z,30.42
2024-02-02T21:41:05.659Z,31.27
2024-02-02T21:43:32.349Z,32.30
2024-02-02T21:45:59.107Z,32.58
2024-02-02T21:48:26.067Z,29.60
2024-02-02T21:50:55.905Z,30.60
2024-02-02T21:53:22.665Z,30.63
2024-02-02T21:55:49.380Z,29.38
2024-02-02T21:58:16.118Z,29.83
2024-02-02T22:00:42.920Z,30.75
2024-02-02T22:03:09.729Z,31.42
2024-02-02T22:05:36.449Z,29.88
2024-02-02T22:08:03.163Z,27.15
2024-02-02T22:10:29.926Z,28.15
2024-02-02T22:12:56.905Z,31.52
2024-02-02T22:15:23.687Z,32.20
2024-02-02T22:17:50.556Z,32.70
2024-02-02T22:20:17.590Z,29.67
2024-02-02T22:22:44.314Z,29.20
2024-02-02T22:25:10.994Z,26.88
2024-02-02T22:27:38.208Z,27.20
2024-02-02T22:30:07.008Z,28.17
2024-02-02T22:32:34.034Z,22.27
2024-02-02T22:35:02.249Z,27.20
2024-02-02T22:37:29.049Z,29.08
2024-02-02T22:39:55.912Z,31.27
2024-02-02T22:42:22.956Z,27.70
2024-02-02T22:44:49.727Z,29.48
2024-02-02T22:47:16.410Z,26.27
2024-02-02T22:49:43.154Z,31.05
2024-02-02T22:52:09.909Z,28.30
2024-02-02T22:54:36.684Z,29.40
2024-02-02T22:57:03.443Z,28.42
2024-02-02T22:59:31.454Z,31.83
2024-02-02T23:01:58.159Z,26.40
2024-02-02T23:04:24.997Z,31.13
2024-02-02T23:06:51.844Z,29.27
2024-02-02T23:09:18.613Z,24.25
2024-02-02T23:11:45.346Z,29.65
2024-02-02T23:14:12.095Z,32.88
2024-02-02T23:16:38.897Z,29.75
2024-02-02T23:19:05.877Z,29.73
2024-02-02T23:21:33.666Z,26.67
2024-02-02T23:24:00.446Z,25.40
2024-02-02T23:26:27.183Z,25.50
2024-02-02T23:28:53.882Z,27.80
2024-02-02T23:31:20.600Z,26.90
2024-02-02T23:33:47.498Z,27.00
2024-02-02T23:36:14.512Z,24.98
2024-02-02T23:38:42.861Z,26.05
2024-02-02T23:41:14.609Z,27.27
2024-02-02T23:43:41.363Z,27.85
2024-02-02T23:46:10.067Z,25.98
2024-02-02T23:48:37.635Z,26.75
2024-02-02T23:51:07.840Z,26.58
2024-02-02T23:53:35.256Z,25.33
2024-02-02T23:56:02.081Z,29.23
2024-02-02T23:58:28.815Z,28.23
